sensor_id;sensor_type;location;lat;lon;timestamp;P1;durP1;ratioP1;P2;durP2;ratioP2
44189;SDS011;29856;52.144;5.430;2022-11-15T00:01:22;39.88;;;21.63;;
44189;SDS011;29856;52.144;5.430;2022-11-15T00:03:50;40.88;;;22.60;;
44189;SDS011;29856;52.144;5.430;2022-11-15T00:06:16;41.53;;;21.17;;
44189;SDS011;29856;52.144;5.430;2022-11-15T00:08:42;45.35;;;23.95;;
44189;SDS011;29856;52.144;5.430;2022-11-15T00:11:07;49.88;;;24.88;;
44189;SDS011;29856;52.144;5.430;2022-11-15T00:13:35;50.83;;;25.23;;
44189;SDS011;29856;52.144;5.430;2022-11-15T00:16:01;43.90;;;23.00;;
44189;SDS011;29856;52.144;5.430;2022-11-15T00:18:27;50.30;;;25.95;;
44189;SDS011;29856;52.144;5.430;2022-11-15T00:20:53;60.05;;;28.83;;
44189;SDS011;29856;52.144;5.430;2022-11-15T00:23:18;52.53;;;25.48;;
44189;SDS011;29856;52.144;5.430;2022-11-15T00:25:44;54.47;;;25.70;;
44189;SDS011;29856;52.144;5.430;2022-11-15T00:28:09;55.03;;;26.60;;
44189;SDS011;29856;52.144;5.430;2022-11-15T00:30:35;55.97;;;26.98;;
44189;SDS011;29856;52.144;5.430;2022-11-15T00:33:04;55.10;;;26.25;;
44189;SDS011;29856;52.144;5.430;2022-11-15T00:35:33;67.03;;;30.35;;
44189;SDS011;29856;52.144;5.430;2022-11-15T00:38:00;65.70;;;29.02;;
44189;SDS011;29856;52.144;5.430;2022-11-15T00:40:26;80.20;;;31.92;;
44189;SDS011;29856;52.144;5.430;2022-11-15T00:42:52;58.92;;;28.70;;
44189;SDS011;29856;52.144;5.430;2022-11-15T00:45:17;65.22;;;29.65;;
44189;SDS011;29856;52.144;5.430;2022-11-15T00:47:46;67.30;;;29.58;;
44189;SDS011;29856;52.144;5.430;2022-11-15T00:50:12;60.85;;;27.20;;
44189;SDS011;29856;52.144;5.430;2022-11-15T00:52:38;53.45;;;24.48;;
44189;SDS011;29856;52.144;5.430;2022-11-15T00:55:03;69.45;;;29.33;;
44189;SDS011;29856;52.144;5.430;2022-11-15T00:57:29;74.55;;;31.02;;
44189;SDS011;29856;52.144;5.430;2022-11-15T00:59:54;66.20;;;28.73;;
44189;SDS011;29856;52.144;5.430;2022-11-15T01:02:20;77.82;;;34.28;;
44189;SDS011;29856;52.144;5.430;2022-11-15T01:04:45;87.25;;;33.42;;
44189;SDS011;29856;52.144;5.430;2022-11-15T01:07:11;72.53;;;31.30;;
44189;SDS011;29856;52.144;5.430;2022-11-15T01:09:37;64.32;;;28.42;;
44189;SDS011;29856;52.144;5.430;2022-11-15T01:12:02;66.47;;;29.80;;
44189;SDS011;29856;52.144;5.430;2022-11-15T01:14:28;66.38;;;28.02;;
44189;SDS011;29856;52.144;5.430;2022-11-15T01:16:54;52.35;;;24.67;;
44189;SDS011;29856;52.144;5.430;2022-11-15T01:19:19;59.30;;;26.30;;
44189;SDS011;29856;52.144;5.430;2022-11-15T01:21:45;61.47;;;29.48;;
44189;SDS011;29856;52.144;5.430;2022-11-15T01:24:13;61.88;;;28.35;;
44189;SDS011;29856;52.144;5.430;2022-11-15T01:26:38;53.00;;;25.63;;
44189;SDS011;29856;52.144;5.430;2022-11-15T01:29:04;54.65;;;26.88;;
44189;SDS011;29856;52.144;5.430;2022-11-15T01:31:29;58.90;;;27.17;;
44189;SDS011;29856;52.144;5.430;2022-11-15T01:33:55;54.95;;;28.13;;
44189;SDS011;29856;52.144;5.430;2022-11-15T01:36:21;47.97;;;24.83;;
44189;SDS011;29856;52.144;5.430;2022-11-15T01:38:52;58.95;;;27.33;;
44189;SDS011;29856;52.144;5.430;2022-11-15T01:41:23;50.70;;;25.92;;
44189;SDS011;29856;52.144;5.430;2022-11-15T01:43:54;61.42;;;29.10;;
44189;SDS011;29856;52.144;5.430;2022-11-15T01:46:27;60.50;;;30.88;;
44189;SDS011;29856;52.144;5.430;2022-11-15T01:48:53;49.28;;;25.45;;
44189;SDS011;29856;52.144;5.430;2022-11-15T01:51:22;58.63;;;28.27;;
44189;SDS011;29856;52.144;5.430;2022-11-15T01:53:52;53.63;;;28.10;;
44189;SDS011;29856;52.144;5.430;2022-11-15T01:56:23;57.00;;;27.55;;
44189;SDS011;29856;52.144;5.430;2022-11-15T01:58:52;54.50;;;27.88;;
44189;SDS011;29856;52.144;5.430;2022-11-15T02:01:20;59.60;;;27.25;;
44189;SDS011;29856;52.144;5.430;2022-11-15T02:03:52;56.90;;;26.67;;
44189;SDS011;29856;52.144;5.430;2022-11-15T02:06:21;55.92;;;28.02;;
44189;SDS011;29856;52.144;5.430;2022-11-15T02:08:47;50.53;;;26.95;;
44189;SDS011;29856;52.144;5.430;2022-11-15T02:11:13;49.25;;;24.60;;
44189;SDS011;29856;52.144;5.430;2022-11-15T02:13:39;52.10;;;26.80;;
44189;SDS011;29856;52.144;5.430;2022-11-15T02:21:29;48.85;;;24.92;;
44189;SDS011;29856;52.144;5.430;2022-11-15T02:27:10;54.08;;;27.33;;
44189;SDS011;29856;52.144;5.430;2022-11-15T02:32:11;52.63;;;27.77;;
44189;SDS011;29856;52.144;5.430;2022-11-15T02:34:58;52.10;;;28.77;;
44189;SDS011;29856;52.144;5.430;2022-11-15T02:37:43;54.78;;;27.40;;
44189;SDS011;29856;52.144;5.430;2022-11-15T02:40:26;59.60;;;30.02;;
44189;SDS011;29856;52.144;5.430;2022-11-15T02:43:15;48.63;;;25.83;;
44189;SDS011;29856;52.144;5.430;2022-11-15T02:45:48;58.03;;;29.00;;
44189;SDS011;29856;52.144;5.430;2022-11-15T02:48:18;58.15;;;29.35;;
44189;SDS011;29856;52.144;5.430;2022-11-15T02:50:46;56.28;;;30.17;;
44189;SDS011;29856;52.144;5.430;2022-11-15T02:53:13;56.90;;;29.10;;
44189;SDS011;29856;52.144;5.430;2022-11-15T02:55:46;50.58;;;29.75;;
44189;SDS011;29856;52.144;5.430;2022-11-15T03:06:45;43.95;;;25.25;;
44189;SDS011;29856;52.144;5.430;2022-11-15T03:11:59;36.45;;;24.25;;
44189;SDS011;29856;52.144;5.430;2022-11-15T03:14:37;34.45;;;21.25;;
44189;SDS011;29856;52.144;5.430;2022-11-15T03:19:53;42.90;;;25.48;;
44189;SDS011;29856;52.144;5.430;2022-11-15T03:22:22;36.20;;;21.90;;
44189;SDS011;29856;52.144;5.430;2022-11-15T03:24:57;41.25;;;22.92;;
44189;SDS011;29856;52.144;5.430;2022-11-15T03:27:27;48.47;;;26.88;;
44189;SDS011;29856;52.144;5.430;2022-11-15T03:29:59;36.08;;;22.63;;
44189;SDS011;29856;52.144;5.430;2022-11-15T03:32:29;49.20;;;27.75;;
44189;SDS011;29856;52.144;5.430;2022-11-15T03:35:00;44.17;;;26.35;;
44189;SDS011;29856;52.144;5.430;2022-11-15T03:37:32;45.47;;;26.55;;
44189;SDS011;29856;52.144;5.430;2022-11-15T03:40:09;34.35;;;22.55;;
44189;SDS011;29856;52.144;5.430;2022-11-15T03:45:18;45.63;;;27.63;;
44189;SDS011;29856;52.144;5.430;2022-11-15T03:47:49;50.33;;;28.98;;
44189;SDS011;29856;52.144;5.430;2022-11-15T03:50:22;44.20;;;27.05;;
44189;SDS011;29856;52.144;5.430;2022-11-15T03:52:49;45.42;;;27.00;;
44189;SDS011;29856;52.144;5.430;2022-11-15T03:55:17;37.58;;;22.55;;
44189;SDS011;29856;52.144;5.430;2022-11-15T03:57:45;44.15;;;26.33;;
44189;SDS011;29856;52.144;5.430;2022-11-15T04:00:12;35.95;;;24.25;;
44189;SDS011;29856;52.144;5.430;2022-11-15T04:02:38;45.60;;;26.33;;
44189;SDS011;29856;52.144;5.430;2022-11-15T04:05:03;36.15;;;22.40;;
44189;SDS011;29856;52.144;5.430;2022-11-15T04:07:29;40.47;;;24.90;;
44189;SDS011;29856;52.144;5.430;2022-11-15T04:09:54;37.55;;;23.80;;
44189;SDS011;29856;52.144;5.430;2022-11-15T04:12:20;43.97;;;27.25;;
44189;SDS011;29856;52.144;5.430;2022-11-15T04:14:45;33.75;;;21.13;;
44189;SDS011;29856;52.144;5.430;2022-11-15T04:17:11;33.28;;;23.30;;
44189;SDS011;29856;52.144;5.430;2022-11-15T04:19:36;37.55;;;23.33;;
44189;SDS011;29856;52.144;5.430;2022-11-15T04:22:02;42.95;;;24.95;;
44189;SDS011;29856;52.144;5.430;2022-11-15T04:24:27;44.30;;;26.10;;
44189;SDS011;29856;52.144;5.430;2022-11-15T04:26:53;42.08;;;25.33;;
44189;SDS011;29856;52.144;5.430;2022-11-15T04:29:18;39.10;;;25.08;;
44189;SDS011;29856;52.144;5.430;2022-11-15T04:31:44;40.05;;;26.15;;
44189;SDS011;29856;52.144;5.430;2022-11-15T04:34:09;31.15;;;22.25;;
44189;SDS011;29856;52.144;5.430;2022-11-15T04:36:34;34.58;;;22.35;;
44189;SDS011;29856;52.144;5.430;2022-11-15T04:39:00;34.92;;;23.00;;
44189;SDS011;29856;52.144;5.430;2022-11-15T04:41:25;37.72;;;24.13;;
44189;SDS011;29856;52.144;5.430;2022-11-15T04:43:51;31.75;;;21.52;;
44189;SDS011;29856;52.144;5.430;2022-11-15T04:46:16;38.58;;;25.90;;
44189;SDS011;29856;52.144;5.430;2022-11-15T04:48:42;37.88;;;24.92;;
44189;SDS011;29856;52.144;5.430;2022-11-15T04:51:08;42.03;;;25.73;;
44189;SDS011;29856;52.144;5.430;2022-11-15T04:53:33;40.78;;;25.23;;
44189;SDS011;29856;52.144;5.430;2022-11-15T04:55:58;35.65;;;23.90;;
44189;SDS011;29856;52.144;5.430;2022-11-15T04:58:24;37.42;;;24.35;;
44189;SDS011;29856;52.144;5.430;2022-11-15T05:00:49;35.38;;;23.70;;
44189;SDS011;29856;52.144;5.430;2022-11-15T05:03:15;35.60;;;24.05;;
44189;SDS011;29856;52.144;5.430;2022-11-15T05:05:40;33.42;;;23.23;;
44189;SDS011;29856;52.144;5.430;2022-11-15T05:08:06;35.88;;;21.67;;
44189;SDS011;29856;52.144;5.430;2022-11-15T05:10:32;32.78;;;23.25;;
44189;SDS011;29856;52.144;5.430;2022-11-15T05:12:58;30.02;;;23.15;;
44189;SDS011;29856;52.144;5.430;2022-11-15T05:15:23;37.92;;;24.70;;
44189;SDS011;29856;52.144;5.430;2022-11-15T05:17:49;36.60;;;24.98;;
44189;SDS011;29856;52.144;5.430;2022-11-15T05:20:14;35.38;;;23.23;;
44189;SDS011;29856;52.144;5.430;2022-11-15T05:22:40;40.50;;;24.85;;
44189;SDS011;29856;52.144;5.430;2022-11-15T05:25:05;38.45;;;26.02;;
44189;SDS011;29856;52.144;5.430;2022-11-15T05:27:32;37.95;;;23.45;;
44189;SDS011;29856;52.144;5.430;2022-11-15T05:29:58;30.98;;;22.73;;
44189;SDS011;29856;52.144;5.430;2022-11-15T05:32:24;35.58;;;22.88;;
44189;SDS011;29856;52.144;5.430;2022-11-15T05:34:49;31.70;;;22.45;;
44189;SDS011;29856;52.144;5.430;2022-11-15T05:37:15;29.58;;;21.02;;
44189;SDS011;29856;52.144;5.430;2022-11-15T05:39:41;32.63;;;23.40;;
44189;SDS011;29856;52.144;5.430;2022-11-15T05:42:08;30.70;;;20.85;;
44189;SDS011;29856;52.144;5.430;2022-11-15T05:44:36;32.92;;;22.05;;
44189;SDS011;29856;52.144;5.430;2022-11-15T05:47:03;34.97;;;22.85;;
44189;SDS011;29856;52.144;5.430;2022-11-15T05:49:33;32.08;;;23.17;;
44189;SDS011;29856;52.144;5.430;2022-11-15T05:52:02;31.45;;;19.83;;
44189;SDS011;29856;52.144;5.430;2022-11-15T05:54:31;30.77;;;22.77;;
44189;SDS011;29856;52.144;5.430;2022-11-15T05:56:57;26.42;;;20.52;;
44189;SDS011;29856;52.144;5.430;2022-11-15T05:59:22;29.83;;;21.52;;
44189;SDS011;29856;52.144;5.430;2022-11-15T06:01:49;34.28;;;21.30;;
44189;SDS011;29856;52.144;5.430;2022-11-15T06:04:14;32.22;;;23.27;;
44189;SDS011;29856;52.144;5.430;2022-11-15T06:06:39;40.00;;;23.92;;
44189;SDS011;29856;52.144;5.430;2022-11-15T06:09:05;30.88;;;21.90;;
44189;SDS011;29856;52.144;5.430;2022-11-15T06:11:30;25.95;;;19.15;;
44189;SDS011;29856;52.144;5.430;2022-11-15T06:13:56;29.27;;;20.17;;
44189;SDS011;29856;52.144;5.430;2022-11-15T06:16:22;40.85;;;25.40;;
44189;SDS011;29856;52.144;5.430;2022-11-15T06:18:47;33.63;;;23.45;;
44189;SDS011;29856;52.144;5.430;2022-11-15T06:21:13;38.03;;;24.52;;
44189;SDS011;29856;52.144;5.430;2022-11-15T06:23:38;39.97;;;24.52;;
44189;SDS011;29856;52.144;5.430;2022-11-15T06:26:03;45.13;;;26.60;;
44189;SDS011;29856;52.144;5.430;2022-11-15T06:28:30;32.63;;;23.92;;
44189;SDS011;29856;52.144;5.430;2022-11-15T06:31:01;35.05;;;24.80;;
44189;SDS011;29856;52.144;5.430;2022-11-15T06:33:30;31.73;;;23.15;;
44189;SDS011;29856;52.144;5.430;2022-11-15T06:35:55;38.13;;;25.75;;
44189;SDS011;29856;52.144;5.430;2022-11-15T06:38:25;35.20;;;24.45;;
44189;SDS011;29856;52.144;5.430;2022-11-15T06:40:51;33.75;;;25.00;;
44189;SDS011;29856;52.144;5.430;2022-11-15T06:43:17;39.22;;;25.73;;
44189;SDS011;29856;52.144;5.430;2022-11-15T06:45:42;34.75;;;23.58;;
44189;SDS011;29856;52.144;5.430;2022-11-15T06:48:07;36.92;;;24.17;;
44189;SDS011;29856;52.144;5.430;2022-11-15T06:50:33;25.98;;;19.60;;
44189;SDS011;29856;52.144;5.430;2022-11-15T06:53:03;34.97;;;24.88;;
44189;SDS011;29856;52.144;5.430;2022-11-15T06:55:28;27.92;;;20.20;;
44189;SDS011;29856;52.144;5.430;2022-11-15T06:57:54;31.52;;;22.27;;
44189;SDS011;29856;52.144;5.430;2022-11-15T07:00:20;29.58;;;20.67;;
44189;SDS011;29856;52.144;5.430;2022-11-15T07:02:46;33.50;;;19.95;;
44189;SDS011;29856;52.144;5.430;2022-11-15T07:05:12;34.60;;;24.40;;
44189;SDS011;29856;52.144;5.430;2022-11-15T07:07:39;36.80;;;25.45;;
44189;SDS011;29856;52.144;5.430;2022-11-15T07:10:04;36.35;;;23.65;;
44189;SDS011;29856;52.144;5.430;2022-11-15T07:12:30;36.30;;;24.30;;
44189;SDS011;29856;52.144;5.430;2022-11-15T07:14:56;31.90;;;23.02;;
44189;SDS011;29856;52.144;5.430;2022-11-15T07:17:21;33.75;;;23.23;;
44189;SDS011;29856;52.144;5.430;2022-11-15T07:19:47;38.58;;;25.67;;
44189;SDS011;29856;52.144;5.430;2022-11-15T07:22:12;40.92;;;25.02;;
44189;SDS011;29856;52.144;5.430;2022-11-15T07:24:38;35.72;;;24.23;;
44189;SDS011;29856;52.144;5.430;2022-11-15T07:27:03;36.97;;;23.40;;
44189;SDS011;29856;52.144;5.430;2022-11-15T07:29:29;36.38;;;23.95;;
44189;SDS011;29856;52.144;5.430;2022-11-15T07:31:54;36.53;;;24.63;;
44189;SDS011;29856;52.144;5.430;2022-11-15T07:34:20;35.45;;;22.77;;
44189;SDS011;29856;52.144;5.430;2022-11-15T07:36:45;30.38;;;20.98;;
44189;SDS011;29856;52.144;5.430;2022-11-15T07:39:11;35.55;;;21.15;;
44189;SDS011;29856;52.144;5.430;2022-11-15T07:41:36;29.85;;;21.48;;
44189;SDS011;29856;52.144;5.430;2022-11-15T07:44:02;28.08;;;20.30;;
44189;SDS011;29856;52.144;5.430;2022-11-15T07:46:27;32.65;;;21.58;;
44189;SDS011;29856;52.144;5.430;2022-11-15T07:48:52;33.22;;;20.70;;
44189;SDS011;29856;52.144;5.430;2022-11-15T07:51:18;27.55;;;19.88;;
44189;SDS011;29856;52.144;5.430;2022-11-15T07:53:43;29.45;;;20.35;;
44189;SDS011;29856;52.144;5.430;2022-11-15T07:56:09;34.20;;;19.88;;
44189;SDS011;29856;52.144;5.430;2022-11-15T07:58:35;27.83;;;18.98;;
44189;SDS011;29856;52.144;5.430;2022-11-15T08:01:04;28.98;;;17.88;;
44189;SDS011;29856;52.144;5.430;2022-11-15T08:03:31;29.35;;;19.85;;
44189;SDS011;29856;52.144;5.430;2022-11-15T08:05:57;31.33;;;20.35;;
44189;SDS011;29856;52.144;5.430;2022-11-15T08:08:23;31.80;;;19.98;;
44189;SDS011;29856;52.144;5.430;2022-11-15T08:10:48;31.13;;;19.60;;
44189;SDS011;29856;52.144;5.430;2022-11-15T08:13:14;32.88;;;19.27;;
44189;SDS011;29856;52.144;5.430;2022-11-15T08:15:39;23.08;;;16.20;;
44189;SDS011;29856;52.144;5.430;2022-11-15T08:18:06;28.13;;;19.42;;
44189;SDS011;29856;52.144;5.430;2022-11-15T08:20:34;29.25;;;18.65;;
44189;SDS011;29856;52.144;5.430;2022-11-15T08:23:01;29.48;;;18.67;;
44189;SDS011;29856;52.144;5.430;2022-11-15T08:25:29;25.33;;;17.50;;
44189;SDS011;29856;52.144;5.430;2022-11-15T08:27:57;29.23;;;17.73;;
44189;SDS011;29856;52.144;5.430;2022-11-15T08:30:24;24.63;;;16.50;;
44189;SDS011;29856;52.144;5.430;2022-11-15T08:32:50;31.40;;;18.73;;
44189;SDS011;29856;52.144;5.430;2022-11-15T08:35:16;22.92;;;16.33;;
44189;SDS011;29856;52.144;5.430;2022-11-15T08:37:42;24.25;;;17.42;;
44189;SDS011;29856;52.144;5.430;2022-11-15T08:40:09;25.35;;;17.35;;
44189;SDS011;29856;52.144;5.430;2022-11-15T08:42:35;25.60;;;16.15;;
44189;SDS011;29856;52.144;5.430;2022-11-15T08:45:01;30.05;;;17.92;;
44189;SDS011;29856;52.144;5.430;2022-11-15T08:47:27;25.73;;;17.33;;
44189;SDS011;29856;52.144;5.430;2022-11-15T08:49:52;24.45;;;17.38;;
44189;SDS011;29856;52.144;5.430;2022-11-15T08:52:18;30.15;;;18.25;;
44189;SDS011;29856;52.144;5.430;2022-11-15T08:54:43;26.45;;;17.92;;
44189;SDS011;29856;52.144;5.430;2022-11-15T08:57:09;28.48;;;19.33;;
44189;SDS011;29856;52.144;5.430;2022-11-15T08:59:35;29.98;;;17.40;;
44189;SDS011;29856;52.144;5.430;2022-11-15T09:02:01;26.90;;;16.67;;
44189;SDS011;29856;52.144;5.430;2022-11-15T09:04:27;22.75;;;17.17;;
44189;SDS011;29856;52.144;5.430;2022-11-15T09:06:53;33.40;;;17.85;;
44189;SDS011;29856;52.144;5.430;2022-11-15T09:09:18;25.35;;;16.73;;
44189;SDS011;29856;52.144;5.430;2022-11-15T09:11:43;23.38;;;15.50;;
44189;SDS011;29856;52.144;5.430;2022-11-15T09:14:12;22.13;;;16.92;;
44189;SDS011;29856;52.144;5.430;2022-11-15T09:16:39;25.02;;;16.25;;
44189;SDS011;29856;52.144;5.430;2022-11-15T09:19:04;25.23;;;15.52;;
44189;SDS011;29856;52.144;5.430;2022-11-15T09:21:30;26.67;;;15.45;;
44189;SDS011;29856;52.144;5.430;2022-11-15T09:23:56;26.80;;;15.60;;
44189;SDS011;29856;52.144;5.430;2022-11-15T09:26:21;26.67;;;15.10;;
44189;SDS011;29856;52.144;5.430;2022-11-15T09:28:47;20.95;;;14.82;;
44189;SDS011;29856;52.144;5.430;2022-11-15T09:31:12;23.67;;;15.88;;
44189;SDS011;29856;52.144;5.430;2022-11-15T09:33:38;25.33;;;14.85;;
44189;SDS011;29856;52.144;5.430;2022-11-15T09:36:04;18.38;;;12.70;;
44189;SDS011;29856;52.144;5.430;2022-11-15T09:38:33;22.73;;;13.90;;
44189;SDS011;29856;52.144;5.430;2022-11-15T09:41:13;17.92;;;11.68;;
44189;SDS011;29856;52.144;5.430;2022-11-15T09:49:21;15.50;;;9.50;;
44189;SDS011;29856;52.144;5.430;2022-11-15T09:51:49;14.70;;;9.32;;
44189;SDS011;29856;52.144;5.430;2022-11-15T09:54:21;14.38;;;9.40;;
44189;SDS011;29856;52.144;5.430;2022-11-15T09:56:48;13.93;;;9.02;;
44189;SDS011;29856;52.144;5.430;2022-11-15T10:01:53;12.13;;;9.07;;
44189;SDS011;29856;52.144;5.430;2022-11-15T10:04:26;13.30;;;8.38;;
44189;SDS011;29856;52.144;5.430;2022-11-15T10:06:54;10.05;;;8.15;;
44189;SDS011;29856;52.144;5.430;2022-11-15T10:09:42;10.48;;;7.78;;
44189;SDS011;29856;52.144;5.430;2022-11-15T10:12:09;10.82;;;7.95;;
44189;SDS011;29856;52.144;5.430;2022-11-15T10:14:37;12.73;;;9.35;;
44189;SDS011;29856;52.144;5.430;2022-11-15T10:20:02;11.85;;;7.43;;
44189;SDS011;29856;52.144;5.430;2022-11-15T10:22:49;11.18;;;6.82;;
44189;SDS011;29856;52.144;5.430;2022-11-15T10:25:19;12.63;;;6.38;;
44189;SDS011;29856;52.144;5.430;2022-11-15T10:27:50;10.93;;;5.60;;
44189;SDS011;29856;52.144;5.430;2022-11-15T10:30:19;8.30;;;4.85;;
44189;SDS011;29856;52.144;5.430;2022-11-15T10:32:46;11.23;;;5.40;;
44189;SDS011;29856;52.144;5.430;2022-11-15T10:35:16;7.38;;;5.20;;
44189;SDS011;29856;52.144;5.430;2022-11-15T10:37:45;7.03;;;4.90;;
44189;SDS011;29856;52.144;5.430;2022-11-15T10:40:18;8.70;;;4.68;;
44189;SDS011;29856;52.144;5.430;2022-11-15T10:42:45;9.65;;;4.90;;
44189;SDS011;29856;52.144;5.430;2022-11-15T10:45:25;6.03;;;4.00;;
44189;SDS011;29856;52.144;5.430;2022-11-15T10:47:53;7.28;;;4.30;;
44189;SDS011;29856;52.144;5.430;2022-11-15T10:50:39;10.77;;;3.78;;
44189;SDS011;29856;52.144;5.430;2022-11-15T10:55:47;11.23;;;4.70;;
44189;SDS011;29856;52.144;5.430;2022-11-15T10:58:20;6.80;;;3.67;;
44189;SDS011;29856;52.144;5.430;2022-11-15T11:00:52;5.57;;;3.88;;
44189;SDS011;29856;52.144;5.430;2022-11-15T11:03:29;7.95;;;3.70;;
44189;SDS011;29856;52.144;5.430;2022-11-15T11:06:07;6.93;;;3.35;;
44189;SDS011;29856;52.144;5.430;2022-11-15T11:08:34;3.90;;;2.80;;
44189;SDS011;29856;52.144;5.430;2022-11-15T11:11:00;7.35;;;3.42;;
44189;SDS011;29856;52.144;5.430;2022-11-15T11:13:34;10.68;;;3.03;;
44189;SDS011;29856;52.144;5.430;2022-11-15T11:18:41;8.65;;;3.35;;
44189;SDS011;29856;52.144;5.430;2022-11-15T11:21:24;4.55;;;2.75;;
44189;SDS011;29856;52.144;5.430;2022-11-15T11:24:08;6.40;;;3.10;;
44189;SDS011;29856;52.144;5.430;2022-11-15T11:26:45;6.10;;;3.03;;
44189;SDS011;29856;52.144;5.430;2022-11-15T11:37:32;6.00;;;2.78;;
44189;SDS011;29856;52.144;5.430;2022-11-15T11:46:02;6.18;;;2.80;;
44189;SDS011;29856;52.144;5.430;2022-11-15T11:49:29;8.38;;;2.80;;
44189;SDS011;29856;52.144;5.430;2022-11-15T11:51:54;7.47;;;2.60;;
44189;SDS011;29856;52.144;5.430;2022-11-15T11:54:40;6.18;;;2.70;;
44189;SDS011;29856;52.144;5.430;2022-11-15T11:57:35;4.68;;;2.17;;
44189;SDS011;29856;52.144;5.430;2022-11-15T12:02:44;5.47;;;2.45;;
44189;SDS011;29856;52.144;5.430;2022-11-15T12:11:14;7.18;;;2.40;;
44189;SDS011;29856;52.144;5.430;2022-11-15T12:13:44;7.00;;;2.05;;
44189;SDS011;29856;52.144;5.430;2022-11-15T12:18:44;5.35;;;1.60;;
44189;SDS011;29856;52.144;5.430;2022-11-15T12:21:17;3.35;;;1.48;;
44189;SDS011;29856;52.144;5.430;2022-11-15T12:23:50;5.80;;;1.53;;
44189;SDS011;29856;52.144;5.430;2022-11-15T12:26:23;5.10;;;1.42;;
44189;SDS011;29856;52.144;5.430;2022-11-15T12:29:02;4.05;;;1.50;;
44189;SDS011;29856;52.144;5.430;2022-11-15T12:33:58;4.93;;;1.65;;
44189;SDS011;29856;52.144;5.430;2022-11-15T12:36:49;4.82;;;1.50;;
44189;SDS011;29856;52.144;5.430;2022-11-15T12:39:16;5.00;;;1.50;;
44189;SDS011;29856;52.144;5.430;2022-11-15T13:02:29;5.07;;;1.50;;
44189;SDS011;29856;52.144;5.430;2022-11-15T13:17:54;5.90;;;1.70;;
44189;SDS011;29856;52.144;5.430;2022-11-15T13:20:25;8.20;;;2.00;;
44189;SDS011;29856;52.144;5.430;2022-11-15T13:28:01;7.35;;;2.80;;
44189;SDS011;29856;52.144;5.430;2022-11-15T13:30:39;6.50;;;2.05;;
44189;SDS011;29856;52.144;5.430;2022-11-15T13:33:27;6.93;;;2.10;;
44189;SDS011;29856;52.144;5.430;2022-11-15T13:35:58;5.13;;;2.28;;
44189;SDS011;29856;52.144;5.430;2022-11-15T13:38:28;6.88;;;1.70;;
44189;SDS011;29856;52.144;5.430;2022-11-15T13:40:56;6.70;;;2.00;;
44189;SDS011;29856;52.144;5.430;2022-11-15T13:43:32;4.32;;;2.63;;
44189;SDS011;29856;52.144;5.430;2022-11-15T13:48:45;5.65;;;2.08;;
44189;SDS011;29856;52.144;5.430;2022-11-15T13:56:53;7.53;;;2.05;;
44189;SDS011;29856;52.144;5.430;2022-11-15T13:59:49;8.88;;;2.10;;
44189;SDS011;29856;52.144;5.430;2022-11-15T14:02:20;5.20;;;2.00;;
44189;SDS011;29856;52.144;5.430;2022-11-15T14:04:55;6.55;;;1.60;;
44189;SDS011;29856;52.144;5.430;2022-11-15T14:07:44;6.32;;;1.60;;
44189;SDS011;29856;52.144;5.430;2022-11-15T14:10:30;8.25;;;2.40;;
44189;SDS011;29856;52.144;5.430;2022-11-15T14:13:00;7.82;;;2.33;;
44189;SDS011;29856;52.144;5.430;2022-11-15T14:15:33;7.57;;;2.03;;
44189;SDS011;29856;52.144;5.430;2022-11-15T14:18:02;6.50;;;1.50;;
44189;SDS011;29856;52.144;5.430;2022-11-15T14:20:33;8.55;;;2.25;;
44189;SDS011;29856;52.144;5.430;2022-11-15T14:23:04;6.75;;;2.20;;
44189;SDS011;29856;52.144;5.430;2022-11-15T14:25:53;6.32;;;1.70;;
44189;SDS011;29856;52.144;5.430;2022-11-15T14:30:48;11.23;;;2.33;;
44189;SDS011;29856;52.144;5.430;2022-11-15T14:33:19;7.63;;;1.33;;
44189;SDS011;29856;52.144;5.430;2022-11-15T14:35:54;6.35;;;1.73;;
44189;SDS011;29856;52.144;5.430;2022-11-15T14:38:20;8.27;;;1.85;;
44189;SDS011;29856;52.144;5.430;2022-11-15T14:40:46;5.00;;;1.42;;
44189;SDS011;29856;52.144;5.430;2022-11-15T14:43:12;5.28;;;1.60;;
44189;SDS011;29856;52.144;5.430;2022-11-15T14:45:38;5.10;;;1.38;;
44189;SDS011;29856;52.144;5.430;2022-11-15T14:48:06;7.63;;;1.80;;
44189;SDS011;29856;52.144;5.430;2022-11-15T14:50:32;5.88;;;1.85;;
44189;SDS011;29856;52.144;5.430;2022-11-15T14:52:58;6.00;;;1.60;;
44189;SDS011;29856;52.144;5.430;2022-11-15T14:55:24;6.15;;;1.55;;
44189;SDS011;29856;52.144;5.430;2022-11-15T14:57:55;9.20;;;1.77;;
44189;SDS011;29856;52.144;5.430;2022-11-15T15:00:20;3.55;;;1.70;;
44189;SDS011;29856;52.144;5.430;2022-11-15T15:02:47;4.53;;;1.80;;
44189;SDS011;29856;52.144;5.430;2022-11-15T15:05:17;7.88;;;1.67;;
44189;SDS011;29856;52.144;5.430;2022-11-15T15:07:45;5.50;;;1.70;;
44189;SDS011;29856;52.144;5.430;2022-11-15T15:10:11;7.20;;;1.50;;
44189;SDS011;29856;52.144;5.430;2022-11-15T15:12:38;4.70;;;1.40;;
44189;SDS011;29856;52.144;5.430;2022-11-15T15:15:03;6.38;;;1.35;;
44189;SDS011;29856;52.144;5.430;2022-11-15T15:17:29;5.47;;;1.20;;
44189;SDS011;29856;52.144;5.430;2022-11-15T15:19:55;4.70;;;1.83;;
44189;SDS011;29856;52.144;5.430;2022-11-15T15:22:20;7.30;;;2.00;;
44189;SDS011;29856;52.144;5.430;2022-11-15T15:24:46;5.28;;;1.60;;
44189;SDS011;29856;52.144;5.430;2022-11-15T15:27:11;5.45;;;1.60;;
44189;SDS011;29856;52.144;5.430;2022-11-15T15:29:37;6.95;;;1.38;;
44189;SDS011;29856;52.144;5.430;2022-11-15T15:32:03;3.80;;;1.30;;
44189;SDS011;29856;52.144;5.430;2022-11-15T15:34:29;6.43;;;1.70;;
44189;SDS011;29856;52.144;5.430;2022-11-15T15:39:45;5.05;;;1.60;;
44189;SDS011;29856;52.144;5.430;2022-11-15T15:42:10;4.50;;;1.50;;
44189;SDS011;29856;52.144;5.430;2022-11-15T15:44:36;7.60;;;1.40;;
44189;SDS011;29856;52.144;5.430;2022-11-15T15:47:01;3.83;;;1.50;;
44189;SDS011;29856;52.144;5.430;2022-11-15T15:49:32;4.32;;;1.50;;
44189;SDS011;29856;52.144;5.430;2022-11-15T15:51:58;5.22;;;1.60;;
44189;SDS011;29856;52.144;5.430;2022-11-15T15:54:23;6.22;;;2.28;;
44189;SDS011;29856;52.144;5.430;2022-11-15T15:56:49;5.38;;;1.50;;
44189;SDS011;29856;52.144;5.430;2022-11-15T15:59:14;6.40;;;1.40;;
44189;SDS011;29856;52.144;5.430;2022-11-15T16:01:40;8.68;;;1.70;;
44189;SDS011;29856;52.144;5.430;2022-11-15T16:04:05;7.95;;;2.08;;
44189;SDS011;29856;52.144;5.430;2022-11-15T16:06:38;8.43;;;2.03;;
44189;SDS011;29856;52.144;5.430;2022-11-15T16:09:05;5.40;;;1.70;;
44189;SDS011;29856;52.144;5.430;2022-11-15T16:11:31;6.18;;;1.75;;
44189;SDS011;29856;52.144;5.430;2022-11-15T16:13:56;6.13;;;2.72;;
44189;SDS011;29856;52.144;5.430;2022-11-15T16:16:22;9.55;;;1.80;;
44189;SDS011;29856;52.144;5.430;2022-11-15T16:18:47;6.97;;;1.55;;
44189;SDS011;29856;52.144;5.430;2022-11-15T16:21:13;11.80;;;1.60;;
44189;SDS011;29856;52.144;5.430;2022-11-15T16:23:38;5.32;;;1.60;;
44189;SDS011;29856;52.144;5.430;2022-11-15T16:26:06;9.38;;;2.00;;
44189;SDS011;29856;52.144;5.430;2022-11-15T16:28:49;4.88;;;1.92;;
44189;SDS011;29856;52.144;5.430;2022-11-15T16:31:14;4.55;;;1.65;;
44189;SDS011;29856;52.144;5.430;2022-11-15T16:33:40;3.35;;;1.52;;
44189;SDS011;29856;52.144;5.430;2022-11-15T16:36:10;5.03;;;1.73;;
44189;SDS011;29856;52.144;5.430;2022-11-15T16:38:45;9.55;;;2.00;;
44189;SDS011;29856;52.144;5.430;2022-11-15T16:41:10;5.43;;;2.08;;
44189;SDS011;29856;52.144;5.430;2022-11-15T16:43:36;6.05;;;1.73;;